sensor_id;sensor_type;location;lat;lon;timestamp;P1;durP1;ratioP1;P2;durP2;ratioP2
7683;SDS011;3884;48.616;12.872;2024-01-25T00:00:52;14.23;;;3.83;;
7683;SDS011;3884;48.616;12.872;2024-01-25T00:03:19;13.03;;;3.77;;
7683;SDS011;3884;48.616;12.872;2024-01-25T00:05:46;15.10;;;3.57;;
7683;SDS011;3884;48.616;12.872;2024-01-25T00:08:13;17.83;;;4.10;;
7683;SDS011;3884;48.616;12.872;2024-01-25T00:10:40;11.43;;;3.40;;
7683;SDS011;3884;48.616;12.872;2024-01-25T00:13:08;15.20;;;3.67;;
7683;SDS011;3884;48.616;12.872;2024-01-25T00:15:35;12.07;;;3.73;;
7683;SDS011;3884;48.616;12.872;2024-01-25T00:18:04;15.83;;;3.80;;
7683;SDS011;3884;48.616;12.872;2024-01-25T00:20:31;10.87;;;3.83;;
7683;SDS011;3884;48.616;12.872;2024-01-25T00:23:01;14.00;;;3.93;;
7683;SDS011;3884;48.616;12.872;2024-01-25T00:25:28;14.73;;;4.03;;
7683;SDS011;3884;48.616;12.872;2024-01-25T00:27:55;10.97;;;3.67;;
7683;SDS011;3884;48.616;12.872;2024-01-25T00:30:22;13.07;;;3.83;;
7683;SDS011;3884;48.616;12.872;2024-01-25T00:32:49;12.57;;;3.60;;
7683;SDS011;3884;48.616;12.872;2024-01-25T00:35:18;16.13;;;4.73;;
7683;SDS011;3884;48.616;12.872;2024-01-25T00:37:45;13.20;;;4.40;;
7683;SDS011;3884;48.616;12.872;2024-01-25T00:40:12;11.97;;;3.97;;
7683;SDS011;3884;48.616;12.872;2024-01-25T00:42:41;12.43;;;4.77;;
7683;SDS011;3884;48.616;12.872;2024-01-25T00:45:09;17.53;;;4.57;;
7683;SDS011;3884;48.616;12.872;2024-01-25T00:47:38;15.93;;;4.87;;
7683;SDS011;3884;48.616;12.872;2024-01-25T00:50:07;15.00;;;3.90;;
7683;SDS011;3884;48.616;12.872;2024-01-25T00:52:36;12.33;;;3.87;;
7683;SDS011;3884;48.616;12.872;2024-01-25T00:55:07;15.90;;;5.03;;
7683;SDS011;3884;48.616;12.872;2024-01-25T00:57:35;20.40;;;4.70;;
7683;SDS011;3884;48.616;12.872;2024-01-25T01:00:02;14.70;;;3.53;;
7683;SDS011;3884;48.616;12.872;2024-01-25T01:02:31;12.70;;;3.57;;
7683;SDS011;3884;48.616;12.872;2024-01-25T01:05:03;13.20;;;3.80;;
7683;SDS011;3884;48.616;12.872;2024-01-25T01:07:30;14.70;;;4.43;;
7683;SDS011;3884;48.616;12.872;2024-01-25T01:10:01;16.80;;;4.20;;
7683;SDS011;3884;48.616;12.872;2024-01-25T01:12:28;14.77;;;3.70;;
7683;SDS011;3884;48.616;12.872;2024-01-25T01:14:55;13.77;;;4.03;;
7683;SDS011;3884;48.616;12.872;2024-01-25T01:17:22;13.60;;;4.40;;
7683;SDS011;3884;48.616;12.872;2024-01-25T01:19:48;17.50;;;4.53;;
7683;SDS011;3884;48.616;12.872;2024-01-25T01:22:15;16.63;;;4.53;;
7683;SDS011;3884;48.616;12.872;2024-01-25T01:24:42;17.33;;;4.63;;
7683;SDS011;3884;48.616;12.872;2024-01-25T01:27:10;16.13;;;4.47;;
7683;SDS011;3884;48.616;12.872;2024-01-25T01:29:37;14.10;;;4.20;;
7683;SDS011;3884;48.616;12.872;2024-01-25T01:32:04;15.90;;;4.10;;
7683;SDS011;3884;48.616;12.872;2024-01-25T01:34:31;18.30;;;4.40;;
7683;SDS011;3884;48.616;12.872;2024-01-25T01:36:58;17.57;;;4.50;;
7683;SDS011;3884;48.616;12.872;2024-01-25T01:39:25;11.93;;;4.33;;
7683;SDS011;3884;48.616;12.872;2024-01-25T01:41:52;18.80;;;4.23;;
7683;SDS011;3884;48.616;12.872;2024-01-25T01:44:21;13.60;;;3.67;;
7683;SDS011;3884;48.616;12.872;2024-01-25T01:46:48;19.33;;;4.77;;
7683;SDS011;3884;48.616;12.872;2024-01-25T01:49:15;13.20;;;3.90;;
7683;SDS011;3884;48.616;12.872;2024-01-25T01:51:42;17.17;;;4.33;;
7683;SDS011;3884;48.616;12.872;2024-01-25T01:54:09;12.90;;;4.50;;
7683;SDS011;3884;48.616;12.872;2024-01-25T01:56:36;16.73;;;4.37;;
7683;SDS011;3884;48.616;12.872;2024-01-25T01:59:05;14.07;;;4.03;;
7683;SDS011;3884;48.616;12.872;2024-01-25T02:01:37;11.37;;;4.33;;
7683;SDS011;3884;48.616;12.872;2024-01-25T02:04:05;13.37;;;4.03;;
7683;SDS011;3884;48.616;12.872;2024-01-25T02:06:32;17.33;;;4.77;;
7683;SDS011;3884;48.616;12.872;2024-01-25T02:08:59;16.63;;;4.57;;
7683;SDS011;3884;48.616;12.872;2024-01-25T02:11:26;13.80;;;4.23;;
7683;SDS011;3884;48.616;12.872;2024-01-25T02:13:55;15.13;;;4.43;;
7683;SDS011;3884;48.616;12.872;2024-01-25T02:16:22;14.77;;;4.07;;
7683;SDS011;3884;48.616;12.872;2024-01-25T02:18:50;15.40;;;4.13;;
7683;SDS011;3884;48.616;12.872;2024-01-25T02:21:19;14.37;;;4.50;;
7683;SDS011;3884;48.616;12.872;2024-01-25T02:23:47;11.17;;;4.13;;
7683;SDS011;3884;48.616;12.872;2024-01-25T02:26:14;14.93;;;4.17;;
7683;SDS011;3884;48.616;12.872;2024-01-25T02:28:41;16.17;;;3.90;;
7683;SDS011;3884;48.616;12.872;2024-01-25T02:31:08;17.40;;;4.80;;
7683;SDS011;3884;48.616;12.872;2024-01-25T02:33:35;17.10;;;4.00;;
7683;SDS011;3884;48.616;12.872;2024-01-25T02:36:02;14.23;;;4.60;;
7683;SDS011;3884;48.616;12.872;2024-01-25T02:38:29;16.03;;;4.43;;
7683;SDS011;3884;48.616;12.872;2024-01-25T02:40:58;18.63;;;4.63;;
7683;SDS011;3884;48.616;12.872;2024-01-25T02:43:25;18.03;;;5.37;;
7683;SDS011;3884;48.616;12.872;2024-01-25T02:45:53;16.33;;;5.20;;
7683;SDS011;3884;48.616;12.872;2024-01-25T02:48:19;17.13;;;4.77;;
7683;SDS011;3884;48.616;12.872;2024-01-25T02:50:46;16.27;;;4.50;;
7683;SDS011;3884;48.616;12.872;2024-01-25T02:53:13;15.67;;;4.47;;
7683;SDS011;3884;48.616;12.872;2024-01-25T02:55:41;13.53;;;4.37;;
7683;SDS011;3884;48.616;12.872;2024-01-25T02:58:09;15.97;;;4.60;;
7683;SDS011;3884;48.616;12.872;2024-01-25T03:00:36;17.23;;;4.53;;
7683;SDS011;3884;48.616;12.872;2024-01-25T03:03:03;20.90;;;4.27;;
7683;SDS011;3884;48.616;12.872;2024-01-25T03:05:30;17.37;;;4.40;;
7683;SDS011;3884;48.616;12.872;2024-01-25T03:07:58;16.23;;;4.17;;
7683;SDS011;3884;48.616;12.872;2024-01-25T03:10:25;15.57;;;4.60;;
7683;SDS011;3884;48.616;12.872;2024-01-25T03:12:52;13.77;;;4.37;;
7683;SDS011;3884;48.616;12.872;2024-01-25T03:15:20;13.67;;;4.40;;
7683;SDS011;3884;48.616;12.872;2024-01-25T03:17:47;15.70;;;4.40;;
7683;SDS011;3884;48.616;12.872;2024-01-25T03:20:14;20.27;;;5.67;;
7683;SDS011;3884;48.616;12.872;2024-01-25T03:22:41;15.00;;;4.40;;
7683;SDS011;3884;48.616;12.872;2024-01-25T03:25:08;18.43;;;4.40;;
7683;SDS011;3884;48.616;12.872;2024-01-25T03:27:37;18.80;;;4.83;;
7683;SDS011;3884;48.616;12.872;2024-01-25T03:30:04;19.97;;;4.57;;
7683;SDS011;3884;48.616;12.872;2024-01-25T03:32:34;15.93;;;4.50;;
7683;SDS011;3884;48.616;12.872;2024-01-25T03:35:01;20.40;;;4.57;;
7683;SDS011;3884;48.616;12.872;2024-01-25T03:37:28;21.70;;;4.93;;
7683;SDS011;3884;48.616;12.872;2024-01-25T03:39:55;16.57;;;4.40;;
7683;SDS011;3884;48.616;12.872;2024-01-25T03:42:23;17.07;;;4.07;;
7683;SDS011;3884;48.616;12.872;2024-01-25T03:44:49;21.23;;;6.10;;
7683;SDS011;3884;48.616;12.872;2024-01-25T03:47:16;15.87;;;4.33;;
7683;SDS011;3884;48.616;12.872;2024-01-25T03:49:45;18.23;;;4.47;;
7683;SDS011;3884;48.616;12.872;2024-01-25T03:52:12;18.00;;;4.30;;
7683;SDS011;3884;48.616;12.872;2024-01-25T03:54:39;18.57;;;4.00;;
7683;SDS011;3884;48.616;12.872;2024-01-25T03:57:06;17.27;;;4.90;;
7683;SDS011;3884;48.616;12.872;2024-01-25T04:00:02;19.33;;;4.73;;
7683;SDS011;3884;48.616;12.872;2024-01-25T04:02:30;17.43;;;4.40;;
7683;SDS011;3884;48.616;12.872;2024-01-25T04:04:57;16.40;;;4.10;;
7683;SDS011;3884;48.616;12.872;2024-01-25T04:07:27;18.03;;;4.90;;
7683;SDS011;3884;48.616;12.872;2024-01-25T04:09:54;16.47;;;4.30;;
7683;SDS011;3884;48.616;12.872;2024-01-25T04:12:21;18.27;;;4.97;;
7683;SDS011;3884;48.616;12.872;2024-01-25T04:14:50;22.10;;;4.90;;
7683;SDS011;3884;48.616;12.872;2024-01-25T04:17:18;15.27;;;4.27;;
7683;SDS011;3884;48.616;12.872;2024-01-25T04:19:45;15.43;;;4.33;;
7683;SDS011;3884;48.616;12.872;2024-01-25T04:22:12;18.30;;;4.30;;
7683;SDS011;3884;48.616;12.872;2024-01-25T04:24:39;16.70;;;4.77;;
7683;SDS011;3884;48.616;12.872;2024-01-25T04:27:06;17.20;;;4.33;;
7683;SDS011;3884;48.616;12.872;2024-01-25T04:29:33;19.17;;;4.13;;
7683;SDS011;3884;48.616;12.872;2024-01-25T04:31:59;22.43;;;5.70;;
7683;SDS011;3884;48.616;12.872;2024-01-25T04:34:28;21.43;;;4.80;;
7683;SDS011;3884;48.616;12.872;2024-01-25T04:36:55;15.63;;;4.20;;
7683;SDS011;3884;48.616;12.872;2024-01-25T04:39:21;19.67;;;4.30;;
7683;SDS011;3884;48.616;12.872;2024-01-25T04:41:48;15.27;;;4.77;;
7683;SDS011;3884;48.616;12.872;2024-01-25T04:44:16;16.63;;;4.43;;
7683;SDS011;3884;48.616;12.872;2024-01-25T04:46:44;17.83;;;4.33;;
7683;SDS011;3884;48.616;12.872;2024-01-25T04:49:11;12.33;;;4.43;;
7683;SDS011;3884;48.616;12.872;2024-01-25T04:51:39;17.47;;;4.07;;
7683;SDS011;3884;48.616;12.872;2024-01-25T04:54:06;13.90;;;4.47;;
7683;SDS011;3884;48.616;12.872;2024-01-25T04:56:37;21.03;;;4.60;;
7683;SDS011;3884;48.616;12.872;2024-01-25T04:59:04;15.67;;;4.60;;
7683;SDS011;3884;48.616;12.872;2024-01-25T05:01:31;14.50;;;4.50;;
7683;SDS011;3884;48.616;12.872;2024-01-25T05:03:59;17.27;;;3.70;;
7683;SDS011;3884;48.616;12.872;2024-01-25T05:06:26;18.37;;;4.43;;
7683;SDS011;3884;48.616;12.872;2024-01-25T05:08:55;18.47;;;4.57;;
7683;SDS011;3884;48.616;12.872;2024-01-25T05:11:21;14.13;;;4.33;;
7683;SDS011;3884;48.616;12.872;2024-01-25T05:13:48;12.63;;;3.93;;
7683;SDS011;3884;48.616;12.872;2024-01-25T05:16:15;16.30;;;4.17;;
7683;SDS011;3884;48.616;12.872;2024-01-25T05:18:42;17.43;;;4.27;;
7683;SDS011;3884;48.616;12.872;2024-01-25T05:21:09;11.67;;;4.27;;
7683;SDS011;3884;48.616;12.872;2024-01-25T05:23:36;15.30;;;5.83;;
7683;SDS011;3884;48.616;12.872;2024-01-25T05:26:05;18.83;;;4.73;;
7683;SDS011;3884;48.616;12.872;2024-01-25T05:28:32;13.47;;;4.40;;
7683;SDS011;3884;48.616;12.872;2024-01-25T05:30:59;11.80;;;4.00;;
7683;SDS011;3884;48.616;12.872;2024-01-25T05:33:28;14.37;;;4.73;;
7683;SDS011;3884;48.616;12.872;2024-01-25T05:35:54;9.97;;;3.77;;
7683;SDS011;3884;48.616;12.872;2024-01-25T05:38:21;13.13;;;4.80;;
7683;SDS011;3884;48.616;12.872;2024-01-25T05:40:48;14.67;;;4.23;;
7683;SDS011;3884;48.616;12.872;2024-01-25T05:43:17;13.43;;;4.43;;
7683;SDS011;3884;48.616;12.872;2024-01-25T05:45:44;13.97;;;4.33;;
7683;SDS011;3884;48.616;12.872;2024-01-25T05:48:12;14.77;;;4.83;;
7683;SDS011;3884;48.616;12.872;2024-01-25T05:50:38;15.30;;;4.20;;
7683;SDS011;3884;48.616;12.872;2024-01-25T05:53:05;19.13;;;4.83;;
7683;SDS011;3884;48.616;12.872;2024-01-25T05:55:32;13.67;;;4.73;;
7683;SDS011;3884;48.616;12.872;2024-01-25T05:57:59;14.67;;;4.57;;
7683;SDS011;3884;48.616;12.872;2024-01-25T06:00:28;16.80;;;4.50;;
7683;SDS011;3884;48.616;12.872;2024-01-25T06:02:55;20.87;;;5.23;;
7683;SDS011;3884;48.616;12.872;2024-01-25T06:05:21;19.60;;;4.87;;
7683;SDS011;3884;48.616;12.872;2024-01-25T06:07:53;21.40;;;5.10;;
7683;SDS011;3884;48.616;12.872;2024-01-25T06:10:20;17.57;;;4.10;;
7683;SDS011;3884;48.616;12.872;2024-01-25T06:12:49;17.10;;;4.40;;
7683;SDS011;3884;48.616;12.872;2024-01-25T06:15:16;19.47;;;4.80;;
7683;SDS011;3884;48.616;12.872;2024-01-25T06:17:49;13.47;;;4.20;;
7683;SDS011;3884;48.616;12.872;2024-01-25T06:20:17;16.40;;;4.63;;
7683;SDS011;3884;48.616;12.872;2024-01-25T06:22:48;13.03;;;5.13;;
7683;SDS011;3884;48.616;12.872;2024-01-25T06:25:15;18.10;;;5.23;;
7683;SDS011;3884;48.616;12.872;2024-01-25T06:27:46;17.63;;;4.90;;
7683;SDS011;3884;48.616;12.872;2024-01-25T06:30:13;17.83;;;5.17;;
7683;SDS011;3884;48.616;12.872;2024-01-25T06:32:41;16.17;;;5.03;;
7683;SDS011;3884;48.616;12.872;2024-01-25T06:35:09;16.13;;;4.77;;
7683;SDS011;3884;48.616;12.872;2024-01-25T06:37:36;16.53;;;4.53;;
7683;SDS011;3884;48.616;12.872;2024-01-25T06:40:04;13.57;;;4.70;;
7683;SDS011;3884;48.616;12.872;2024-01-25T06:42:32;19.73;;;5.37;;
7683;SDS011;3884;48.616;12.872;2024-01-25T06:44:59;19.00;;;4.40;;
7683;SDS011;3884;48.616;12.872;2024-01-25T06:47:26;16.67;;;4.70;;
7683;SDS011;3884;48.616;12.872;2024-01-25T06:49:52;22.00;;;5.50;;
7683;SDS011;3884;48.616;12.872;2024-01-25T06:52:21;13.57;;;4.73;;
7683;SDS011;3884;48.616;12.872;2024-01-25T06:54:48;12.07;;;4.57;;
7683;SDS011;3884;48.616;12.872;2024-01-25T06:57:14;16.13;;;5.17;;
7683;SDS011;3884;48.616;12.872;2024-01-25T06:59:43;16.17;;;4.60;;
7683;SDS011;3884;48.616;12.872;2024-01-25T07:02:10;22.47;;;5.67;;
7683;SDS011;3884;48.616;12.872;2024-01-25T07:04:37;20.90;;;4.33;;
7683;SDS011;3884;48.616;12.872;2024-01-25T07:07:05;18.53;;;6.20;;
7683;SDS011;3884;48.616;12.872;2024-01-25T07:09:35;13.47;;;5.07;;
7683;SDS011;3884;48.616;12.872;2024-01-25T07:12:07;22.80;;;6.80;;
7683;SDS011;3884;48.616;12.872;2024-01-25T07:14:34;18.57;;;6.20;;
7683;SDS011;3884;48.616;12.872;2024-01-25T07:17:01;17.93;;;6.97;;
7683;SDS011;3884;48.616;12.872;2024-01-25T07:19:30;19.90;;;6.43;;
7683;SDS011;3884;48.616;12.872;2024-01-25T07:21:57;22.00;;;7.97;;
7683;SDS011;3884;48.616;12.872;2024-01-25T07:24:24;22.20;;;9.87;;
7683;SDS011;3884;48.616;12.872;2024-01-25T07:26:54;33.63;;;16.63;;
7683;SDS011;3884;48.616;12.872;2024-01-25T07:29:21;95.30;;;50.27;;
7683;SDS011;3884;48.616;12.872;2024-01-25T07:31:50;33.73;;;14.37;;
7683;SDS011;3884;48.616;12.872;2024-01-25T07:34:17;55.07;;;28.27;;
7683;SDS011;3884;48.616;12.872;2024-01-25T07:36:44;64.77;;;36.77;;
7683;SDS011;3884;48.616;12.872;2024-01-25T07:39:16;63.80;;;30.30;;
7683;SDS011;3884;48.616;12.872;2024-01-25T07:41:59;82.60;;;38.63;;
7683;SDS011;3884;48.616;12.872;2024-01-25T07:44:32;53.97;;;25.50;;
7683;SDS011;3884;48.616;12.872;2024-01-25T07:46:59;15.53;;;6.50;;
7683;SDS011;3884;48.616;12.872;2024-01-25T07:49:28;20.47;;;7.57;;
7683;SDS011;3884;48.616;12.872;2024-01-25T07:52:03;22.20;;;7.03;;
7683;SDS011;3884;48.616;12.872;2024-01-25T07:54:30;45.60;;;24.83;;
7683;SDS011;3884;48.616;12.872;2024-01-25T07:56:59;29.93;;;14.10;;
7683;SDS011;3884;48.616;12.872;2024-01-25T07:59:31;28.37;;;15.00;;
7683;SDS011;3884;48.616;12.872;2024-01-25T08:01:58;28.13;;;16.07;;
7683;SDS011;3884;48.616;12.872;2024-01-25T08:04:34;20.97;;;8.10;;
7683;SDS011;3884;48.616;12.872;2024-01-25T08:07:01;17.77;;;5.40;;
7683;SDS011;3884;48.616;12.872;2024-01-25T08:09:28;15.47;;;5.33;;
7683;SDS011;3884;48.616;12.872;2024-01-25T08:12:00;18.33;;;7.00;;
7683;SDS011;3884;48.616;12.872;2024-01-25T08:14:27;18.03;;;4.93;;
7683;SDS011;3884;48.616;12.872;2024-01-25T08:16:55;17.40;;;5.50;;
7683;SDS011;3884;48.616;12.872;2024-01-25T08:19:24;17.47;;;4.77;;
7683;SDS011;3884;48.616;12.872;2024-01-25T08:21:52;14.90;;;4.90;;
7683;SDS011;3884;48.616;12.872;2024-01-25T08:24:20;17.40;;;4.63;;
7683;SDS011;3884;48.616;12.872;2024-01-25T08:26:47;17.40;;;5.40;;
7683;SDS011;3884;48.616;12.872;2024-01-25T08:29:18;18.47;;;5.57;;
7683;SDS011;3884;48.616;12.872;2024-01-25T08:31:49;18.70;;;6.17;;
7683;SDS011;3884;48.616;12.872;2024-01-25T08:34:23;19.57;;;5.73;;
7683;SDS011;3884;48.616;12.872;2024-01-25T08:36:50;16.50;;;5.23;;
7683;SDS011;3884;48.616;12.872;2024-01-25T08:39:17;25.00;;;6.63;;
7683;SDS011;3884;48.616;12.872;2024-01-25T08:41:44;16.57;;;4.37;;
7683;SDS011;3884;48.616;12.872;2024-01-25T08:44:14;14.67;;;4.77;;
7683;SDS011;3884;48.616;12.872;2024-01-25T08:46:42;20.37;;;5.90;;
7683;SDS011;3884;48.616;12.872;2024-01-25T08:49:09;22.13;;;5.87;;
7683;SDS011;3884;48.616;12.872;2024-01-25T08:51:37;16.67;;;4.63;;
7683;SDS011;3884;48.616;12.872;2024-01-25T08:54:04;18.57;;;5.50;;
7683;SDS011;3884;48.616;12.872;2024-01-25T08:56:31;18.70;;;5.57;;
7683;SDS011;3884;48.616;12.872;2024-01-25T08:58:58;28.47;;;11.57;;
7683;SDS011;3884;48.616;12.872;2024-01-25T09:01:26;21.83;;;9.77;;
7683;SDS011;3884;48.616;12.872;2024-01-25T09:03:56;25.30;;;12.13;;
7683;SDS011;3884;48.616;12.872;2024-01-25T09:06:28;21.37;;;5.40;;
7683;SDS011;3884;48.616;12.872;2024-01-25T09:08:56;22.40;;;8.60;;
7683;SDS011;3884;48.616;12.872;2024-01-25T09:11:24;24.33;;;8.07;;
7683;SDS011;3884;48.616;12.872;2024-01-25T09:13:51;16.50;;;5.70;;
7683;SDS011;3884;48.616;12.872;2024-01-25T09:16:17;15.80;;;6.17;;
7683;SDS011;3884;48.616;12.872;2024-01-25T09:18:45;16.60;;;5.23;;
7683;SDS011;3884;48.616;12.872;2024-01-25T09:21:18;14.70;;;5.70;;
7683;SDS011;3884;48.616;12.872;2024-01-25T09:23:47;23.17;;;7.13;;
7683;SDS011;3884;48.616;12.872;2024-01-25T09:26:14;20.70;;;6.00;;
7683;SDS011;3884;48.616;12.872;2024-01-25T09:28:43;17.40;;;5.20;;
7683;SDS011;3884;48.616;12.872;2024-01-25T09:31:10;20.63;;;5.20;;
7683;SDS011;3884;48.616;12.872;2024-01-25T09:33:37;14.67;;;4.40;;
7683;SDS011;3884;48.616;12.872;2024-01-25T09:36:05;16.63;;;5.17;;
7683;SDS011;3884;48.616;12.872;2024-01-25T09:38:34;19.07;;;5.50;;
7683;SDS011;3884;48.616;12.872;2024-01-25T09:41:01;18.87;;;5.57;;
7683;SDS011;3884;48.616;12.872;2024-01-25T09:43:29;18.90;;;5.63;;
7683;SDS011;3884;48.616;12.872;2024-01-25T09:45:57;16.60;;;4.90;;
7683;SDS011;3884;48.616;12.872;2024-01-25T09:48:24;19.47;;;5.03;;
7683;SDS011;3884;48.616;12.872;2024-01-25T09:51:06;15.57;;;4.87;;
7683;SDS011;3884;48.616;12.872;2024-01-25T09:53:36;15.63;;;5.10;;
7683;SDS011;3884;48.616;12.872;2024-01-25T09:56:05;19.57;;;5.60;;
7683;SDS011;3884;48.616;12.872;2024-01-25T09:58:36;18.93;;;5.03;;
7683;SDS011;3884;48.616;12.872;2024-01-25T10:01:06;20.77;;;4.97;;
7683;SDS011;3884;48.616;12.872;2024-01-25T10:03:35;18.50;;;5.00;;
7683;SDS011;3884;48.616;12.872;2024-01-25T10:06:02;23.53;;;5.13;;
7683;SDS011;3884;48.616;12.872;2024-01-25T10:08:31;18.37;;;5.57;;
7683;SDS011;3884;48.616;12.872;2024-01-25T10:10:59;29.87;;;6.17;;
7683;SDS011;3884;48.616;12.872;2024-01-25T10:13:26;13.77;;;5.07;;
7683;SDS011;3884;48.616;12.872;2024-01-25T10:15:53;19.90;;;5.27;;
7683;SDS011;3884;48.616;12.872;2024-01-25T10:18:21;14.47;;;4.77;;
7683;SDS011;3884;48.616;12.872;2024-01-25T10:20:49;24.83;;;6.63;;
7683;SDS011;3884;48.616;12.872;2024-01-25T10:23:16;23.23;;;7.20;;
7683;SDS011;3884;48.616;12.872;2024-01-25T10:25:43;19.33;;;8.23;;
7683;SDS011;3884;48.616;12.872;2024-01-25T10:28:11;15.63;;;5.10;;
7683;SDS011;3884;48.616;12.872;2024-01-25T10:30:38;16.57;;;5.33;;
7683;SDS011;3884;48.616;12.872;2024-01-25T10:33:05;20.00;;;5.17;;
7683;SDS011;3884;48.616;12.872;2024-01-25T10:35:35;16.60;;;5.70;;
7683;SDS011;3884;48.616;12.872;2024-01-25T10:38:03;16.03;;;4.33;;
7683;SDS011;3884;48.616;12.872;2024-01-25T10:40:31;16.27;;;5.43;;
7683;SDS011;3884;48.616;12.872;2024-01-25T10:42:58;19.47;;;4.80;;
7683;SDS011;3884;48.616;12.872;2024-01-25T10:45:26;16.10;;;4.80;;
7683;SDS011;3884;48.616;12.872;2024-01-25T10:47:53;14.07;;;5.50;;
7683;SDS011;3884;48.616;12.872;2024-01-25T10:50:20;17.47;;;5.40;;
7683;SDS011;3884;48.616;12.872;2024-01-25T10:52:49;15.60;;;4.37;;
7683;SDS011;3884;48.616;12.872;2024-01-25T10:55:17;15.80;;;5.17;;
7683;SDS011;3884;48.616;12.872;2024-01-25T10:57:44;17.10;;;4.87;;
7683;SDS011;3884;48.616;12.872;2024-01-25T11:00:12;15.37;;;4.93;;
7683;SDS011;3884;48.616;12.872;2024-01-25T11:02:43;17.00;;;5.33;;
7683;SDS011;3884;48.616;12.872;2024-01-25T11:05:12;22.53;;;5.70;;
7683;SDS011;3884;48.616;12.872;2024-01-25T11:07:41;14.80;;;4.93;;
7683;SDS011;3884;48.616;12.872;2024-01-25T11:10:13;20.20;;;5.33;;
7683;SDS011;3884;48.616;12.872;2024-01-25T11:12:49;18.70;;;5.13;;
7683;SDS011;3884;48.616;12.872;2024-01-25T11:15:20;19.30;;;5.03;;
7683;SDS011;3884;48.616;12.872;2024-01-25T11:17:54;18.53;;;4.93;;
7683;SDS011;3884;48.616;12.872;2024-01-25T11:20:21;13.20;;;4.50;;
7683;SDS011;3884;48.616;12.872;2024-01-25T11:22:54;16.33;;;4.60;;
7683;SDS011;3884;48.616;12.872;2024-01-25T11:25:26;16.67;;;5.53;;
7683;SDS011;3884;48.616;12.872;2024-01-25T11:27:54;19.07;;;5.50;;
7683;SDS011;3884;48.616;12.872;2024-01-25T11:30:22;13.67;;;4.37;;
7683;SDS011;3884;48.616;12.872;2024-01-25T11:32:51;15.43;;;4.97;;
7683;SDS011;3884;48.616;12.872;2024-01-25T11:35:20;18.83;;;5.23;;
7683;SDS011;3884;48.616;12.872;2024-01-25T11:37:48;17.03;;;6.70;;
7683;SDS011;3884;48.616;12.872;2024-01-25T11:40:17;15.93;;;5.87;;
7683;SDS011;3884;48.616;12.872;2024-01-25T11:42:45;18.27;;;6.73;;
7683;SDS011;3884;48.616;12.872;2024-01-25T11:45:14;17.67;;;6.13;;
7683;SDS011;3884;48.616;12.872;2024-01-25T11:47:41;19.50;;;5.10;;
7683;SDS011;3884;48.616;12.872;2024-01-25T11:50:10;20.53;;;8.57;;
7683;SDS011;3884;48.616;12.872;2024-01-25T11:52:41;17.17;;;6.60;;
7683;SDS011;3884;48.616;12.872;2024-01-25T11:55:09;24.73;;;11.40;;
7683;SDS011;3884;48.616;12.872;2024-01-25T11:57:37;19.20;;;6.40;;
7683;SDS011;3884;48.616;12.872;2024-01-25T12:00:07;20.13;;;6.23;;
7683;SDS011;3884;48.616;12.872;2024-01-25T12:02:36;21.00;;;5.83;;
7683;SDS011;3884;48.616;12.872;2024-01-25T12:05:05;28.83;;;13.00;;
7683;SDS011;3884;48.616;12.872;2024-01-25T12:07:32;18.17;;;5.63;;
7683;SDS011;3884;48.616;12.872;2024-01-25T12:10:03;16.57;;;5.93;;
7683;SDS011;3884;48.616;12.872;2024-01-25T12:12:31;16.20;;;6.03;;
7683;SDS011;3884;48.616;12.872;2024-01-25T12:14:58;12.67;;;4.70;;
7683;SDS011;3884;48.616;12.872;2024-01-25T12:17:28;13.00;;;4.53;;
7683;SDS011;3884;48.616;12.872;2024-01-25T12:19:56;13.30;;;5.13;;
7683;SDS011;3884;48.616;12.872;2024-01-25T12:22:23;15.30;;;5.20;;
7683;SDS011;3884;48.616;12.872;2024-01-25T12:24:52;17.87;;;5.37;;
7683;SDS011;3884;48.616;12.872;2024-01-25T12:27:21;18.73;;;7.03;;
7683;SDS011;3884;48.616;12.872;2024-01-25T12:29:48;19.27;;;6.70;;
7683;SDS011;3884;48.616;12.872;2024-01-25T12:32:18;17.13;;;6.50;;
7683;SDS011;3884;48.616;12.872;2024-01-25T12:34:52;16.93;;;4.93;;
7683;SDS011;3884;48.616;12.872;2024-01-25T12:37:20;16.90;;;4.70;;
7683;SDS011;3884;48.616;12.872;2024-01-25T12:39:48;17.23;;;8.17;;
7683;SDS011;3884;48.616;12.872;2024-01-25T12:42:15;12.27;;;4.57;;
7683;SDS011;3884;48.616;12.872;2024-01-25T12:44:46;16.97;;;4.93;;
7683;SDS011;3884;48.616;12.872;2024-01-25T12:47:13;16.43;;;5.30;;
7683;SDS011;3884;48.616;12.872;2024-01-25T12:49:40;13.63;;;4.30;;
7683;SDS011;3884;48.616;12.872;2024-01-25T12:52:07;20.87;;;6.43;;
7683;SDS011;3884;48.616;12.872;2024-01-25T12:54:34;16.40;;;7.60;;
7683;SDS011;3884;48.616;12.872;2024-01-25T12:57:02;21.27;;;4.97;;
7683;SDS011;3884;48.616;12.872;2024-01-25T12:59:31;15.63;;;5.10;;
7683;SDS011;3884;48.616;12.872;2024-01-25T13:02:02;19.20;;;7.13;;
7683;SDS011;3884;48.616;12.872;2024-01-25T13:04:30;25.63;;;7.00;;
7683;SDS011;3884;48.616;12.872;2024-01-25T13:06:57;18.20;;;8.13;;
7683;SDS011;3884;48.616;12.872;2024-01-25T13:09:24;14.17;;;6.53;;
7683;SDS011;3884;48.616;12.872;2024-01-25T13:11:52;14.10;;;5.57;;
7683;SDS011;3884;48.616;12.872;2024-01-25T13:14:19;14.70;;;6.17;;
7683;SDS011;3884;48.616;12.872;2024-01-25T13:16:46;13.17;;;5.03;;
7683;SDS011;3884;48.616;12.872;2024-01-25T13:19:14;15.90;;;5.73;;
7683;SDS011;3884;48.616;12.872;2024-01-25T13:21:41;15.97;;;7.67;;
7683;SDS011;3884;48.616;12.872;2024-01-25T13:24:08;14.63;;;4.80;;
7683;SDS011;3884;48.616;12.872;2024-01-25T13:26:35;18.33;;;7.00;;
7683;SDS011;3884;48.616;12.872;2024-01-25T13:29:02;20.00;;;10.13;;
7683;SDS011;3884;48.616;12.872;2024-01-25T13:31:29;29.80;;;15.63;;
7683;SDS011;3884;48.616;12.872;2024-01-25T13:33:56;22.23;;;7.73;;
7683;SDS011;3884;48.616;12.872;2024-01-25T13:36:25;16.17;;;5.60;;
7683;SDS011;3884;48.616;12.872;2024-01-25T13:38:52;20.87;;;7.17;;
7683;SDS011;3884;48.616;12.872;2024-01-25T13:41:19;30.70;;;12.70;;
7683;SDS011;3884;48.616;12.872;2024-01-25T13:43:46;33.77;;;14.87;;
7683;SDS011;3884;48.616;12.872;2024-01-25T13:46:13;21.87;;;10.33;;
7683;SDS011;3884;48.616;12.872;2024-01-25T13:48:40;24.67;;;12.30;;
7683;SDS011;3884;48.616;12.872;2024-01-25T13:51:07;14.27;;;5.43;;
7683;SDS011;3884;48.616;12.872;2024-01-25T13:53:36;20.87;;;6.17;;
7683;SDS011;3884;48.616;12.872;2024-01-25T13:56:03;16.50;;;5.97;;
7683;SDS011;3884;48.616;12.872;2024-01-25T13:58:30;13.30;;;4.83;;
7683;SDS011;3884;48.616;12.872;2024-01-25T14:00:57;19.87;;;5.60;;
7683;SDS011;3884;48.616;12.872;2024-01-25T14:03:24;14.40;;;4.93;;
7683;SDS011;3884;48.616;12.872;2024-01-25T14:05:51;11.53;;;4.40;;
7683;SDS011;3884;48.616;12.872;2024-01-25T14:08:18;20.60;;;5.47;;
7683;SDS011;3884;48.616;12.872;2024-01-25T14:10:46;14.07;;;5.17;;
7683;SDS011;3884;48.616;12.872;2024-01-25T14:13:13;13.90;;;4.73;;
7683;SDS011;3884;48.616;12.872;2024-01-25T14:15:40;17.17;;;5.50;;
7683;SDS011;3884;48.616;12.872;2024-01-25T14:18:06;10.73;;;4.03;;
7683;SDS011;3884;48.616;12.872;2024-01-25T14:20:33;17.00;;;4.43;;
7683;SDS011;3884;48.616;12.872;2024-01-25T14:23:02;13.57;;;4.57;;
7683;SDS011;3884;48.616;12.872;2024-01-25T14:25:29;12.97;;;4.80;;
7683;SDS011;3884;48.616;12.872;2024-01-25T14:27:57;14.57;;;4.80;;
7683;SDS011;3884;48.616;12.872;2024-01-25T14:30:24;17.00;;;4.77;;
7683;SDS011;3884;48.616;12.872;2024-01-25T14:32:51;16.17;;;5.43;;
7683;SDS011;3884;48.616;12.872;2024-01-25T14:35:18;17.97;;;4.83;;
7683;SDS011;3884;48.616;12.872;2024-01-25T14:37:45;11.73;;;4.67;;
7683;SDS011;3884;48.616;12.872;2024-01-25T14:40:12;18.23;;;5.63;;
7683;SDS011;3884;48.616;12.872;2024-01-25T14:42:39;18.80;;;8.23;;
7683;SDS011;3884;48.616;12.872;2024-01-25T14:45:07;16.70;;;6.97;;
7683;SDS011;3884;48.616;12.872;2024-01-25T14:47:34;18.97;;;8.53;;
7683;SDS011;3884;48.616;12.872;2024-01-25T14:50:02;17.27;;;5.60;;
7683;SDS011;3884;48.616;12.872;2024-01-25T14:52:29;19.87;;;9.83;;